Time;durP1;ratioP1;P1;durP2;ratioP2;P2;SDS_P1;SDS_P2;PMS_P1;PMS_P2;Temp;Humidity;BMP_temperature;BMP_pressure;BME280_temperature;BME280_humidity;BME280_pressure;Samples;Min_cycle;Max_cycle;Signal;HPM_P1;HPM_P2
2024/04/16 00:01:22;;;;;;;5.63;3.30;;;6.80;99.90;;;;;;5418144;26;20271;-66
2024/04/16 00:03:50;;;;;;;9.35;3.50;;;6.80;99.90;;;;;;5418652;26;20304;-68
2024/04/16 00:06:17;;;;;;;4.68;2.90;;;6.80;99.90;;;;;;5416582;26;20233;-66
2024/04/16 00:08:50;;;;;;;4.05;2.70;;;6.80;99.90;;;;;;5414641;26;20271;-67
2024/04/16 00:11:19;;;;;;;3.30;2.42;;;6.80;99.90;;;;;;5457532;21;20268;-80
2024/04/16 00:13:47;;;;;;;3.63;2.63;;;6.80;99.90;;;;;;5474603;26;20270;-82
2024/04/16 00:16:14;;;;;;;3.50;1.95;;;6.80;99.90;;;;;;5466207;26;20272;-80
2024/04/16 00:18:44;;;;;;;5.20;2.58;;;6.80;99.90;;;;;;5467623;26;20238;-81
2024/04/16 00:21:10;;;;;;;3.80;2.55;;;6.70;99.90;;;;;;5468530;26;20236;-81
2024/04/16 00:23:39;;;;;;;9.70;2.70;;;6.80;99.90;;;;;;5450690;26;20286;-80
2024/04/16 00:26:05;;;;;;;3.15;2.85;;;6.80;99.90;;;;;;5465183;26;20232;-82
2024/04/16 00:28:36;;;;;;;3.88;2.53;;;6.70;99.90;;;;;;5468924;26;20287;-80
2024/04/16 00:31:03;;;;;;;3.30;2.17;;;6.60;99.90;;;;;;5468496;26;20232;-79
2024/04/16 00:33:31;;;;;;;2.15;1.95;;;6.60;99.90;;;;;;5472223;26;20252;-78
2024/04/16 00:35:57;;;;;;;2.25;1.95;;;6.50;99.90;;;;;;5475132;26;20220;-78
2024/04/16 00:38:26;;;;;;;2.53;2.33;;;6.50;99.90;;;;;;5460706;26;20284;-79
2024/04/16 00:40:52;;;;;;;2.85;1.83;;;6.50;99.90;;;;;;5474940;26;20469;-78
2024/04/16 00:43:21;;;;;;;4.35;2.35;;;6.50;99.90;;;;;;5471719;26;20228;-79
2024/04/16 00:45:53;;;;;;;2.55;1.75;;;6.60;99.90;;;;;;5474605;26;20220;-78
2024/04/16 00:48:25;;;;;;;3.95;2.20;;;6.60;99.90;;;;;;5471434;26;20232;-79
2024/04/16 00:50:51;;;;;;;3.42;1.60;;;6.60;99.90;;;;;;5472567;26;20270;-79
2024/04/16 00:53:21;;;;;;;5.45;2.50;;;6.60;99.90;;;;;;5471879;26;20232;-78
2024/04/16 00:55:47;;;;;;;3.95;1.95;;;6.60;99.90;;;;;;5474489;26;20272;-79
2024/04/16 00:58:19;;;;;;;2.60;2.40;;;6.50;99.90;;;;;;5473903;26;20240;-79
2024/04/16 01:00:45;;;;;;;3.58;2.25;;;6.60;99.90;;;;;;5475474;26;20450;-79
2024/04/16 01:03:16;;;;;;;4.20;2.35;;;6.60;99.90;;;;;;5472317;25;20275;-80
2024/04/16 01:05:43;;;;;;;3.03;2.20;;;6.60;99.90;;;;;;5470555;26;20275;-81
2024/04/16 01:08:12;;;;;;;4.57;2.60;;;6.70;99.90;;;;;;5468660;26;20275;-80
2024/04/16 01:10:39;;;;;;;2.88;2.38;;;6.60;99.90;;;;;;5467750;26;20239;-80
2024/04/16 01:13:07;;;;;;;2.78;2.33;;;6.60;99.90;;;;;;5468799;26;20248;-79
2024/04/16 01:15:33;;;;;;;2.88;2.38;;;6.70;99.90;;;;;;5467446;26;20236;-81
2024/04/16 01:18:05;;;;;;;3.00;2.50;;;6.60;99.90;;;;;;5454455;26;20240;-80
2024/04/16 01:20:34;;;;;;;2.83;2.53;;;6.70;99.90;;;;;;5467131;26;20236;-81
2024/04/16 01:23:06;;;;;;;4.00;2.83;;;6.60;99.90;;;;;;5468983;26;20305;-78
2024/04/16 01:25:34;;;;;;;5.10;2.28;;;6.60;99.90;;;;;;5470458;26;20228;-79
2024/04/16 01:28:03;;;;;;;3.35;1.67;;;6.60;99.90;;;;;;5470601;26;20232;-80
2024/04/16 01:30:28;;;;;;;3.33;2.40;;;6.60;99.90;;;;;;5473381;26;20240;-79
2024/04/16 01:32:57;;;;;;;3.33;2.30;;;6.60;99.90;;;;;;5472065;26;20310;-79
2024/04/16 01:35:23;;;;;;;2.67;1.50;;;6.60;99.90;;;;;;5472749;26;20510;-81
2024/04/16 01:37:52;;;;;;;3.00;1.63;;;6.60;99.90;;;;;;5454864;26;20235;-81
2024/04/16 01:40:20;;;;;;;1.70;1.60;;;6.70;99.90;;;;;;5455808;26;20236;-81
2024/04/16 01:42:49;;;;;;;2.45;1.90;;;6.70;99.90;;;;;;5458053;26;20232;-82
2024/04/16 01:45:15;;;;;;;3.08;2.20;;;6.70;99.90;;;;;;5456946;26;20232;-82
2024/04/16 01:47:44;;;;;;;2.85;2.25;;;6.80;99.90;;;;;;5426700;26;20283;-78
2024/04/16 01:50:10;;;;;;;1.75;1.65;;;6.70;99.90;;;;;;5437903;26;20209;-78
2024/04/16 01:52:38;;;;;;;2.63;1.57;;;6.70;99.90;;;;;;5437474;26;20260;-80
2024/04/16 01:55:04;;;;;;;3.70;1.77;;;6.80;99.90;;;;;;5470248;26;20466;-79
2024/04/16 01:57:36;;;;;;;3.65;1.83;;;6.80;99.90;;;;;;5471289;26;20299;-79
2024/04/16 02:00:02;;;;;;;7.85;1.98;;;6.80;99.90;;;;;;5472886;26;20232;-80
2024/04/16 02:02:33;;;;;;;2.10;1.90;;;6.70;99.90;;;;;;5472838;26;20236;-79
2024/04/16 02:04:59;;;;;;;4.82;2.20;;;6.70;99.90;;;;;;5471764;26;20279;-80
2024/04/16 02:07:30;;;;;;;3.73;1.53;;;6.80;99.90;;;;;;5455725;26;20239;-80
2024/04/16 02:09:56;;;;;;;2.38;1.60;;;6.70;99.90;;;;;;5454165;26;20466;-81
2024/04/16 02:12:25;;;;;;;4.30;1.92;;;6.80;99.90;;;;;;5455528;26;20228;-81
2024/04/16 02:14:53;;;;;;;2.75;2.50;;;6.70;99.90;;;;;;5455964;26;20572;-81
2024/04/16 02:17:23;;;;;;;3.75;1.92;;;6.70;99.90;;;;;;5457401;26;20299;-81
2024/04/16 02:19:49;;;;;;;2.53;1.80;;;6.70;99.90;;;;;;5459064;26;20248;-80
2024/04/16 02:22:18;;;;;;;7.33;1.53;;;6.70;99.90;;;;;;5444055;26;20227;-79
2024/04/16 02:24:44;;;;;;;1.65;1.30;;;6.80;99.90;;;;;;5444036;26;20470;-81
2024/04/16 02:27:13;;;;;;;1.95;1.38;;;6.80;99.90;;;;;;5458622;26;20220;-80
2024/04/16 02:29:39;;;;;;;2.00;1.27;;;6.80;99.90;;;;;;5437395;26;20232;-80
2024/04/16 02:32:10;;;;;;;2.05;1.80;;;6.80;99.90;;;;;;5470123;26;20216;-79
2024/04/16 02:34:36;;;;;;;3.95;2.40;;;6.70;99.90;;;;;;5436997;26;20228;-78
2024/04/16 02:37:05;;;;;;;1.50;1.30;;;6.70;99.90;;;;;;5442951;26;20225;-80
2024/04/16 02:39:31;;;;;;;3.70;1.70;;;6.70;99.90;;;;;;5452126;26;20262;-81
2024/04/16 02:42:01;;;;;;;3.37;1.20;;;6.70;99.90;;;;;;5456509;26;20229;-81
2024/04/16 02:44:27;;;;;;;1.30;1.10;;;6.60;99.90;;;;;;5457297;26;20478;-81
2024/04/16 02:46:56;;;;;;;1.97;1.00;;;6.70;99.90;;;;;;5455366;26;20304;-81
2024/04/16 02:49:25;;;;;;;1.65;1.40;;;6.60;99.90;;;;;;5456177;26;20516;-80
2024/04/16 02:51:53;;;;;;;1.08;0.98;;;6.60;99.90;;;;;;5455174;26;20232;-81
2024/04/16 02:54:19;;;;;;;1.73;1.25;;;6.70;99.90;;;;;;5457982;26;20232;-79
2024/04/16 02:56:48;;;;;;;2.00;1.10;;;6.70;99.90;;;;;;5457225;26;20275;-79
2024/04/16 02:59:13;;;;;;;2.15;1.40;;;6.70;99.90;;;;;;5454282;26;21074;-80
2024/04/16 03:01:42;;;;;;;4.97;1.60;;;6.70;99.90;;;;;;5456213;26;20244;-79
2024/04/16 03:04:08;;;;;;;3.15;1.55;;;6.80;99.90;;;;;;5460084;26;20469;-82
2024/04/16 03:06:39;;;;;;;1.83;1.50;;;6.70;99.90;;;;;;5463218;26;20232;-82
2024/04/16 03:09:08;;;;;;;3.85;2.13;;;6.70;99.90;;;;;;5462376;26;20287;-80
2024/04/16 03:11:37;;;;;;;2.40;2.10;;;6.70;99.90;;;;;;5445036;26;20312;-81
2024/04/16 03:14:03;;;;;;;3.55;2.25;;;6.70;99.90;;;;;;5459114;26;20228;-80
2024/04/16 03:16:31;;;;;;;3.00;2.60;;;6.70;99.90;;;;;;5458345;26;20236;-82
2024/04/16 03:18:58;;;;;;;3.08;2.28;;;6.60;99.90;;;;;;5454526;26;20489;-81
2024/04/16 03:21:27;;;;;;;2.80;2.60;;;6.70;99.90;;;;;;5454393;26;20302;-82
2024/04/16 03:23:56;;;;;;;3.13;2.50;;;6.70;99.90;;;;;;5458883;26;20271;-84
2024/04/16 03:26:24;;;;;;;3.10;2.40;;;6.60;99.90;;;;;;5443122;26;20286;-82
2024/04/16 03:28:50;;;;;;;4.95;2.20;;;6.60;99.90;;;;;;5458204;26;20369;-80
2024/04/16 03:31:19;;;;;;;3.80;2.72;;;6.50;99.90;;;;;;5457673;26;20237;-81
2024/04/16 03:33:45;;;;;;;4.10;2.45;;;6.50;99.90;;;;;;5458630;26;20224;-82
2024/04/16 03:36:14;;;;;;;3.97;1.83;;;6.50;99.90;;;;;;5456308;26;20243;-82
2024/04/16 03:38:42;;;;;;;3.15;2.72;;;6.50;99.90;;;;;;5443364;26;20236;-80
2024/04/16 03:41:14;;;;;;;2.65;2.25;;;6.40;99.90;;;;;;5456922;26;20376;-81
2024/04/16 03:43:42;;;;;;;3.38;2.45;;;6.40;99.90;;;;;;5457368;26;20228;-81
2024/04/16 03:46:08;;;;;;;4.57;2.97;;;6.50;99.90;;;;;;5456965;26;20228;-79
2024/04/16 03:48:37;;;;;;;3.63;2.65;;;6.50;99.90;;;;;;5457420;26;20290;-81
2024/04/16 03:51:03;;;;;;;2.53;2.33;;;6.40;99.90;;;;;;5456036;26;20228;-81
2024/04/16 03:53:32;;;;;;;3.10;2.80;;;6.50;99.90;;;;;;5455481;26;20330;-81
2024/04/16 03:55:59;;;;;;;2.90;2.60;;;6.60;99.90;;;;;;5455792;26;20275;-80
2024/04/16 03:58:33;;;;;;;4.18;2.75;;;6.50;99.90;;;;;;5455832;26;20843;-80
2024/04/16 04:01:07;;;;;;;6.40;3.25;;;6.50;99.90;;;;;;5455838;26;20232;-80
2024/04/16 04:03:38;;;;;;;3.63;2.90;;;6.50;99.90;;;;;;5455332;26;20227;-79
2024/04/16 04:06:04;;;;;;;4.72;2.60;;;6.50;99.90;;;;;;5444509;26;20359;-80
2024/04/16 04:08:33;;;;;;;3.40;3.10;;;6.60;99.90;;;;;;5456063;26;20757;-82
2024/04/16 04:11:00;;;;;;;3.50;3.20;;;6.50;99.90;;;;;;5458070;26;20286;-79
2024/04/16 04:13:31;;;;;;;2.97;2.63;;;6.50;99.90;;;;;;5445887;26;20271;-79
2024/04/16 04:15:57;;;;;;;4.53;3.30;;;6.50;99.90;;;;;;5457436;26;20236;-80
2024/04/16 04:18:26;;;;;;;5.82;3.15;;;6.50;99.90;;;;;;5462565;26;20288;-80
2024/04/16 04:20:52;;;;;;;5.55;3.03;;;6.50;99.90;;;;;;5449944;26;20279;-81
2024/04/16 04:23:21;;;;;;;3.20;2.50;;;6.60;99.90;;;;;;5456840;26;20232;-80
2024/04/16 04:25:47;;;;;;;3.00;2.70;;;6.50;99.90;;;;;;5457968;26;20474;-81
2024/04/16 04:28:15;;;;;;;9.60;8.20;;;6.50;99.90;;;;;;5451530;26;20290;-81
2024/04/16 04:30:44;;;;;;;4.95;3.17;;;6.50;99.90;;;;;;5459163;26;20244;-81
2024/04/16 04:33:13;;;;;;;5.35;3.13;;;6.50;99.90;;;;;;5438706;26;20994;-79
2024/04/16 04:35:39;;;;;;;5.25;2.85;;;6.60;99.90;;;;;;5460360;26;20239;-80
2024/04/16 04:38:07;;;;;;;4.80;3.08;;;6.60;99.90;;;;;;5464153;26;20274;-81
2024/04/16 04:40:33;;;;;;;5.47;3.50;;;6.60;99.90;;;;;;5465757;26;20742;-81
2024/04/16 04:43:02;;;;;;;3.35;2.97;;;6.60;99.90;;;;;;5464404;26;20224;-80
2024/04/16 04:45:28;;;;;;;7.00;3.55;;;6.80;99.90;;;;;;5474018;26;20259;-79
2024/04/16 04:47:59;;;;;;;5.20;3.30;;;6.80;99.90;;;;;;5474806;26;20234;-80
2024/04/16 04:50:25;;;;;;;5.53;3.38;;;6.80;99.90;;;;;;5477694;26;20208;-82
2024/04/16 04:52:54;;;;;;;9.82;4.13;;;6.80;99.90;;;;;;5477980;26;20216;-79
2024/04/16 04:55:22;;;;;;;5.43;3.47;;;6.90;99.90;;;;;;5478261;26;20216;-81
2024/04/16 04:57:51;;;;;;;4.40;3.45;;;6.90;99.90;;;;;;5478185;26;20263;-80
2024/04/16 05:00:17;;;;;;;4.88;2.85;;;6.90;99.90;;;;;;5477800;26;20295;-82
2024/04/16 05:02:47;;;;;;;3.15;2.65;;;6.90;99.90;;;;;;5478227;26;20254;-80
2024/04/16 05:05:15;;;;;;;6.15;2.95;;;6.90;99.90;;;;;;5478396;26;20243;-81
2024/04/16 05:07:44;;;;;;;6.40;3.17;;;6.90;99.90;;;;;;5477135;26;20228;-79
2024/04/16 05:10:10;;;;;;;3.97;2.85;;;7.00;99.90;;;;;;5476134;26;20232;-81
2024/04/16 05:12:52;;;;;;;6.07;3.10;;;7.10;99.90;;;;;;5477920;26;20306;-80
2024/04/16 05:15:19;;;;;;;4.30;3.10;;;7.00;99.90;;;;;;5477904;26;20216;-82
2024/04/16 05:17:47;;;;;;;4.10;2.35;;;7.20;99.90;;;;;;5476847;26;20240;-82
2024/04/16 05:20:17;;;;;;;9.75;4.10;;;7.10;99.90;;;;;;5468728;26;20271;-83
2024/04/16 05:22:47;;;;;;;3.63;3.28;;;7.20;99.90;;;;;;5440846;26;20312;-83
2024/04/16 05:25:13;;;;;;;7.05;3.80;;;7.20;99.90;;;;;;5455205;26;20224;-82
2024/04/16 05:27:44;;;;;;;5.50;3.00;;;7.20;99.90;;;;;;5462060;26;20317;-84
2024/04/16 05:30:12;;;;;;;7.38;2.35;;;7.20;99.90;;;;;;5476576;26;20224;-84
2024/04/16 05:32:41;;;;;;;6.50;3.05;;;7.20;99.90;;;;;;5475448;26;20228;-83
2024/04/16 05:35:07;;;;;;;5.57;2.85;;;7.40;99.90;;;;;;5452400;26;20233;-84
2024/04/16 05:37:38;;;;;;;7.23;2.90;;;7.50;99.90;;;;;;5456134;26;20294;-84
2024/04/16 05:40:19;;;;;;;5.28;2.95;;;7.50;99.90;;;;;;5457010;26;20458;-87
2024/04/16 05:42:48;;;;;;;3.10;2.50;;;7.40;99.90;;;;;;5449673;26;20843;-82
2024/04/16 05:45:16;;;;;;;10.43;4.47;;;7.50;99.90;;;;;;5461232;26;20232;-82
2024/04/16 05:47:45;;;;;;;8.43;3.38;;;7.60;99.90;;;;;;5441095;26;20620;-84
2024/04/16 05:50:10;;;;;;;7.85;3.53;;;7.70;99.90;;;;;;5452890;26;20279;-81
2024/04/16 05:52:42;;;;;;;6.70;3.27;;;7.80;99.90;;;;;;5458177;26;20236;-82
2024/04/16 05:55:11;;;;;;;7.53;3.75;;;7.80;99.90;;;;;;5435033;26;20805;-81
2024/04/16 05:57:37;;;;;;;7.90;4.00;;;7.90;99.90;;;;;;5461877;26;20248;-83
2024/04/16 06:00:06;;;;;;;7.30;3.90;;;7.90;99.90;;;;;;5458239;26;20235;-88
2024/04/16 06:02:32;;;;;;;13.25;4.13;;;7.90;99.90;;;;;;5457741;26;20506;-82
2024/04/16 06:05:01;;;;;;;9.43;3.88;;;7.90;99.90;;;;;;5458904;26;20236;-81
2024/04/16 06:07:27;;;;;;;8.68;3.40;;;8.00;99.90;;;;;;5457925;26;20492;-80
2024/04/16 06:09:59;;;;;;;4.85;3.67;;;8.10;99.90;;;;;;5457618;26;20236;-81
2024/04/16 06:12:25;;;;;;;10.95;5.32;;;8.10;99.90;;;;;;5458243;26;20216;-80
2024/04/16 06:14:54;;;;;;;7.00;4.95;;;8.10;99.90;;;;;;5457632;26;20299;-82
2024/04/16 06:17:20;;;;;;;4.55;3.25;;;8.50;99.90;;;;;;5458395;26;20271;-82
2024/04/16 06:19:49;;;;;;;5.22;3.67;;;9.50;99.90;;;;;;5460131;26;20632;-83
2024/04/16 06:22:15;;;;;;;12.43;4.50;;;10.80;99.90;;;;;;5453475;26;20232;-82
2024/04/16 06:24:49;;;;;;;4.10;2.78;;;11.80;99.90;;;;;;5458622;26;20652;-83
2024/04/16 06:27:18;;;;;;;5.75;4.45;;;12.30;99.90;;;;;;5459758;26;20240;-84
2024/04/16 06:29:47;;;;;;;4.28;2.90;;;12.50;99.90;;;;;;5460616;26;20302;-85
2024/04/16 06:32:16;;;;;;;4.70;3.10;;;12.40;99.90;;;;;;5459528;26;20244;-85
2024/04/16 06:34:46;;;;;;;10.32;3.72;;;12.20;99.90;;;;;;5469843;26;20220;-83
2024/04/16 06:37:15;;;;;;;7.28;3.05;;;11.80;99.90;;;;;;5471851;26;20283;-81
2024/04/16 06:39:41;;;;;;;10.07;4.05;;;11.50;99.90;;;;;;5451496;26;20228;-85
2024/04/16 06:42:10;;;;;;;4.15;3.33;;;11.20;99.90;;;;;;5461811;26;20232;-84
2024/04/16 06:44:39;;;;;;;7.78;3.95;;;11.30;99.90;;;;;;5461021;26;20244;-83
2024/04/16 06:47:08;;;;;;;5.57;3.38;;;11.30;99.90;;;;;;5459963;26;20747;-83
2024/04/16 06:49:37;;;;;;;5.65;3.28;;;11.20;99.90;;;;;;5458704;26;20336;-83
2024/04/16 06:52:08;;;;;;;4.30;3.50;;;10.60;99.90;;;;;;5459818;26;20270;-84
2024/04/16 06:54:34;;;;;;;6.32;4.15;;;10.40;99.90;;;;;;5458095;26;20266;-85
2024/04/16 06:57:03;;;;;;;8.10;3.00;;;10.00;99.90;;;;;;5434770;26;20237;-85
2024/04/16 06:59:29;;;;;;;3.03;2.72;;;9.70;99.90;;;;;;5461121;26;20654;-86
2024/04/16 07:02:01;;;;;;;4.45;3.53;;;9.80;99.90;;;;;;5465547;26;20225;-84
2024/04/16 07:04:26;;;;;;;4.38;2.95;;;10.20;99.90;;;;;;5453084;26;20232;-85
2024/04/16 07:06:55;;;;;;;6.00;3.70;;;9.90;99.90;;;;;;5460287;26;20267;-83
2024/04/16 07:09:28;;;;;;;6.95;3.80;;;9.90;99.90;;;;;;5474994;26;20505;-85
2024/04/16 07:12:01;;;;;;;7.82;3.60;;;9.60;99.90;;;;;;5468601;26;20310;-86
2024/04/16 07:14:27;;;;;;;6.53;3.45;;;9.70;99.90;;;;;;5467458;26;20294;-85
2024/04/16 07:16:56;;;;;;;7.72;3.92;;;10.00;99.90;;;;;;5465659;26;20240;-83
2024/04/16 07:19:25;;;;;;;6.03;2.70;;;10.90;99.90;;;;;;5462438;26;20257;-84
2024/04/16 07:21:53;;;;;;;4.95;3.33;;;12.40;99.90;;;;;;5457318;26;20243;-82
2024/04/16 07:24:19;;;;;;;5.53;2.35;;;13.70;99.90;;;;;;5463958;26;20232;-83
2024/04/16 07:26:48;;;;;;;5.22;3.05;;;14.30;99.90;;;;;;5471465;26;20213;-83
2024/04/16 07:29:15;;;;;;;4.60;2.90;;;14.20;99.90;;;;;;5470185;26;20622;-86
2024/04/16 07:31:45;;;;;;;4.93;3.28;;;13.60;99.90;;;;;;5463832;26;20272;-85
2024/04/16 07:34:11;;;;;;;8.60;3.40;;;13.00;99.90;;;;;;5463760;26;20221;-86
2024/04/16 07:36:42;;;;;;;6.45;3.97;;;12.90;99.90;;;;;;5475545;26;20212;-84
2024/04/16 07:39:08;;;;;;;4.70;3.28;;;12.80;99.90;;;;;;5478261;26;20228;-87
2024/04/16 07:41:37;;;;;;;5.53;3.47;;;12.90;99.90;;;;;;5478592;26;20224;-84
2024/04/16 07:44:03;;;;;;;4.70;2.92;;;12.60;99.90;;;;;;5478129;25;20305;-81
2024/04/16 07:46:33;;;;;;;4.65;3.20;;;12.30;99.90;;;;;;5476874;25;20251;-82
2024/04/16 07:48:59;;;;;;;7.93;4.28;;;12.00;99.90;;;;;;5476678;26;20232;-82
2024/04/16 07:51:28;;;;;;;4.55;3.55;;;11.70;99.90;;;;;;5459989;26;20300;-82
2024/04/16 07:53:56;;;;;;;3.60;3.15;;;11.50;99.90;;;;;;5455521;26;20233;-82
2024/04/16 07:56:25;;;;;;;5.35;3.70;;;11.40;99.90;;;;;;5465659;26;20228;-80
2024/04/16 07:58:51;;;;;;;5.03;3.67;;;11.20;99.90;;;;;;5476825;25;20229;-82
2024/04/16 08:01:19;;;;;;;5.07;3.83;;;11.20;99.90;;;;;;5472206;26;20267;-82
2024/04/16 08:03:45;;;;;;;5.07;3.65;;;11.20;99.90;;;;;;5467964;26;20526;-82
2024/04/16 08:06:14;;;;;;;6.07;3.80;;;11.10;99.90;;;;;;5453300;26;20233;-82
2024/04/16 08:08:40;;;;;;;4.45;3.47;;;10.90;99.90;;;;;;5449480;26;20477;-84
2024/04/16 08:11:16;;;;;;;4.17;3.47;;;10.70;99.90;;;;;;5450146;26;20271;-83
2024/04/16 08:13:42;;;;;;;6.95;3.40;;;10.50;99.90;;;;;;5463275;26;20473;-82
2024/04/16 08:16:11;;;;;;;3.50;3.15;;;10.70;99.90;;;;;;5463281;26;20282;-82
2024/04/16 08:18:37;;;;;;;6.50;3.00;;;10.50;99.90;;;;;;5463026;26;20286;-82
2024/04/16 08:21:05;;;;;;;3.53;2.87;;;10.30;99.90;;;;;;5462814;26;20285;-81
2024/04/16 08:23:31;;;;;;;6.30;2.60;;;10.10;99.90;;;;;;5462863;26;20469;-82
2024/04/16 08:26:01;;;;;;;3.78;2.25;;;10.20;99.90;;;;;;5447044;26;20236;-82
2024/04/16 08:28:30;;;;;;;4.32;2.22;;;10.60;99.90;;;;;;5460561;26;20224;-80
2024/04/16 08:31:00;;;;;;;7.43;2.40;;;11.00;99.90;;;;;;5449792;26;20236;-82
2024/04/16 08:33:26;;;;;;;9.82;2.45;;;11.20;99.90;;;;;;5461127;26;20624;-81
2024/04/16 08:35:55;;;;;;;3.40;3.05;;;11.30;99.90;;;;;;5462260;26;20240;-81
2024/04/16 08:38:24;;;;;;;6.32;2.55;;;11.60;99.90;;;;;;5455713;26;20286;-83
2024/04/16 08:40:52;;;;;;;2.85;2.60;;;11.50;99.90;;;;;;5463309;26;20283;-83
2024/04/16 08:43:20;;;;;;;5.10;1.80;;;11.40;99.90;;;;;;5463620;26;20274;-84
2024/04/16 08:45:53;;;;;;;4.00;2.40;;;11.40;99.90;;;;;;5450129;26;20309;-82
2024/04/16 08:48:27;;;;;;;2.30;1.98;;;11.30;99.90;;;;;;5472939;26;20300;-82
2024/04/16 08:50:57;;;;;;;8.35;2.33;;;11.40;99.90;;;;;;5447356;26;20220;-83
2024/04/16 08:53:24;;;;;;;3.45;2.15;;;11.40;99.90;;;;;;5475580;26;20224;-82
2024/04/16 08:55:53;;;;;;;6.00;2.72;;;11.40;99.90;;;;;;5462176;26;20281;-81
2024/04/16 08:58:19;;;;;;;3.95;2.20;;;11.50;99.90;;;;;;5446376;26;20252;-81
2024/04/16 09:00:49;;;;;;;10.07;2.60;;;11.50;99.90;;;;;;5454850;26;20296;-81
2024/04/16 09:03:20;;;;;;;7.28;2.10;;;11.70;99.90;;;;;;5455842;26;20463;-83
2024/04/16 09:05:49;;;;;;;3.60;1.80;;;11.80;99.90;;;;;;5457155;25;20248;-82
2024/04/16 09:08:15;;;;;;;7.40;2.22;;;11.70;99.90;;;;;;5463517;26;20236;-83
2024/04/16 09:10:45;;;;;;;4.20;1.70;;;11.60;99.90;;;;;;5462564;26;20264;-84
2024/04/16 09:13:12;;;;;;;4.70;1.80;;;11.30;99.90;;;;;;5461050;26;20526;-82
2024/04/16 09:15:40;;;;;;;3.90;2.28;;;11.30;99.90;;;;;;5461760;26;20374;-82
2024/04/16 09:18:07;;;;;;;4.70;2.30;;;11.20;99.90;;;;;;5450745;26;20237;-82
2024/04/16 09:20:38;;;;;;;5.15;2.45;;;11.10;99.90;;;;;;5443119;26;20229;-82
2024/04/16 09:23:04;;;;;;;4.25;2.30;;;10.90;99.90;;;;;;5463397;26;20236;-85
2024/04/16 09:25:33;;;;;;;2.27;1.97;;;10.90;99.90;;;;;;5450502;26;20267;-83
2024/04/16 09:27:59;;;;;;;3.28;2.40;;;10.90;99.90;;;;;;5462124;26;20521;-85
2024/04/16 09:30:27;;;;;;;3.80;2.33;;;11.00;99.90;;;;;;5459168;26;20314;-81
2024/04/16 09:32:57;;;;;;;3.35;2.35;;;10.80;99.90;;;;;;5453762;26;20865;-82
2024/04/16 09:35:27;;;;;;;3.05;2.00;;;10.80;99.90;;;;;;5427118;26;20232;-82
2024/04/16 09:38:02;;;;;;;7.35;2.70;;;10.80;99.90;;;;;;5461904;26;20236;-82
2024/04/16 09:40:31;;;;;;;2.25;1.77;;;10.80;99.90;;;;;;5469408;26;20292;-80
2024/04/16 09:42:58;;;;;;;3.38;2.22;;;10.80;99.90;;;;;;5472265;26;20272;-82
2024/04/16 09:45:27;;;;;;;4.50;1.80;;;11.00;99.90;;;;;;5464349;26;20305;-82
2024/04/16 09:47:54;;;;;;;5.03;2.40;;;11.20;99.90;;;;;;5460512;26;20236;-82
2024/04/16 09:50:24;;;;;;;2.30;2.08;;;11.30;99.90;;;;;;5460011;26;20237;-82
2024/04/16 09:52:51;;;;;;;4.35;2.65;;;11.10;99.90;;;;;;5433836;26;20274;-83
2024/04/16 09:55:24;;;;;;;3.97;2.30;;;11.10;99.90;;;;;;5459995;26;20243;-83
2024/04/16 09:57:51;;;;;;;2.65;2.08;;;11.30;99.90;;;;;;5448855;26;20258;-83
2024/04/16 10:00:21;;;;;;;3.53;1.90;;;11.40;99.90;;;;;;5466867;26;20232;-81
2024/04/16 10:02:47;;;;;;;2.63;2.42;;;11.50;99.90;;;;;;5456014;26;20262;-82
2024/04/16 10:05:18;;;;;;;2.67;2.47;;;11.70;99.90;;;;;;5469722;26;20236;-82
2024/04/16 10:07:46;;;;;;;3.95;1.77;;;12.00;99.90;;;;;;5468648;26;20232;-82
2024/04/16 10:10:15;;;;;;;3.75;2.35;;;12.20;99.90;;;;;;5469622;26;20240;-82
2024/04/16 10:12:46;;;;;;;3.13;1.58;;;12.40;99.90;;;;;;5475310;26;20221;-82
2024/04/16 10:15:13;;;;;;;3.17;2.25;;;12.60;99.90;;;;;;5475449;26;20232;-82
2024/04/16 10:17:52;;;;;;;4.07;2.40;;;12.80;99.90;;;;;;5474620;26;20292;-82
2024/04/16 10:20:20;;;;;;;2.40;2.20;;;12.60;99.90;;;;;;5473652;26;20232;-80
2024/04/16 10:22:53;;;;;;;5.22;3.20;;;12.60;99.90;;;;;;5474429;26;20274;-80
2024/04/16 10:25:27;;;;;;;3.03;1.80;;;12.70;99.90;;;;;;5475025;26;20217;-81
2024/04/16 10:28:00;;;;;;;2.80;2.22;;;12.60;99.90;;;;;;5455540;26;20286;-84
2024/04/16 10:30:30;;;;;;;2.95;2.22;;;12.50;99.90;;;;;;5451911;26;20219;-82
2024/04/16 10:32:59;;;;;;;3.15;2.22;;;12.40;99.90;;;;;;5464417;25;20285;-82
2024/04/16 10:35:26;;;;;;;4.68;2.10;;;12.50;99.90;;;;;;5472656;26;20224;-83
2024/04/16 10:37:55;;;;;;;6.65;2.78;;;12.40;99.90;;;;;;5464885;26;20284;-82
2024/04/16 10:40:26;;;;;;;4.72;2.47;;;12.50;99.90;;;;;;5478478;26;20255;-81
2024/04/16 10:43:00;;;;;;;3.08;1.83;;;12.50;99.90;;;;;;5457435;25;20228;-82
2024/04/16 10:45:28;;;;;;;3.47;2.40;;;12.60;99.90;;;;;;5478476;26;20228;-81
2024/04/16 10:47:57;;;;;;;2.63;2.40;;;12.70;99.90;;;;;;5473958;26;20271;-83
2024/04/16 10:50:23;;;;;;;3.55;2.10;;;12.70;99.90;;;;;;5464412;26;20282;-84
2024/04/16 10:52:52;;;;;;;2.20;1.67;;;12.80;99.90;;;;;;5464627;26;20292;-83
2024/04/16 10:55:19;;;;;;;2.63;2.35;;;12.80;99.90;;;;;;5464076;26;20465;-82
2024/04/16 10:57:48;;;;;;;2.78;2.47;;;12.80;99.90;;;;;;5462880;26;20286;-83
2024/04/16 11:00:17;;;;;;;3.80;2.10;;;13.00;99.90;;;;;;5462653;26;20279;-83
2024/04/16 11:02:46;;;;;;;2.65;2.45;;;13.10;99.90;;;;;;5462202;26;20279;-82
2024/04/16 11:05:17;;;;;;;3.88;2.40;;;13.20;99.90;;;;;;5459384;26;20317;-82
2024/04/16 11:07:46;;;;;;;2.85;2.08;;;13.30;99.90;;;;;;5463176;26;20231;-83
2024/04/16 11:10:12;;;;;;;2.80;2.60;;;13.40;99.90;;;;;;5463893;26;20274;-82
2024/04/16 11:12:41;;;;;;;7.18;3.00;;;13.40;99.90;;;;;;5462039;26;20320;-83
2024/04/16 11:15:08;;;;;;;3.78;2.72;;;13.50;99.90;;;;;;5463291;26;20232;-83
2024/04/16 11:17:39;;;;;;;3.00;2.50;;;13.50;99.90;;;;;;5463580;26;20248;-83
2024/04/16 11:20:08;;;;;;;2.08;1.73;;;13.70;99.90;;;;;;5464451;26;20513;-83
2024/04/16 11:22:37;;;;;;;3.42;2.80;;;13.60;99.90;;;;;;5463892;26;20233;-83
2024/04/16 11:25:12;;;;;;;5.68;5.03;;;13.80;99.90;;;;;;5459515;26;20274;-81
2024/04/16 11:27:41;;;;;;;9.02;6.57;;;14.30;99.90;;;;;;5444847;26;20240;-83
2024/04/16 11:30:10;;;;;;;8.68;6.65;;;14.90;99.90;;;;;;5462460;26;20274;-83
2024/04/16 11:32:42;;;;;;;7.35;6.32;;;15.10;99.40;;;;;;5463662;26;20232;-83
2024/04/16 11:35:10;;;;;;;8.75;6.00;;;15.40;98.90;;;;;;5453980;26;20268;-82
2024/04/16 11:37:39;;;;;;;8.32;5.40;;;15.50;98.60;;;;;;5466319;26;20236;-83
2024/04/16 11:40:06;;;;;;;8.13;4.80;;;15.50;98.20;;;;;;5469505;26;20278;-81
2024/04/16 11:42:36;;;;;;;5.78;4.30;;;15.30;97.60;;;;;;5460634;26;20238;-82
2024/04/16 11:45:03;;;;;;;8.52;5.20;;;15.30;97.20;;;;;;5467493;26;20232;-84
2024/04/16 11:47:32;;;;;;;6.80;4.75;;;15.00;97.30;;;;;;5466662;26;20232;-83
2024/04/16 11:50:01;;;;;;;5.25;3.30;;;14.80;97.60;;;;;;5466327;26;20232;-84
2024/04/16 11:52:30;;;;;;;4.30;2.85;;;14.80;97.10;;;;;;5465921;26;20320;-84
2024/04/16 11:54:56;;;;;;;6.78;3.40;;;15.10;97.20;;;;;;5466454;26;20409;-83
2024/04/16 11:57:24;;;;;;;7.15;4.47;;;15.50;96.80;;;;;;5467706;26;20271;-83
2024/04/16 11:59:51;;;;;;;7.18;4.00;;;15.80;96.10;;;;;;5466273;26;20281;-83
2024/04/16 12:02:19;;;;;;;4.20;2.75;;;15.70;95.20;;;;;;5460950;26;20229;-83
2024/04/16 12:04:45;;;;;;;4.82;3.60;;;15.50;95.40;;;;;;5466898;26;20283;-83
2024/04/16 12:07:16;;;;;;;4.17;2.70;;;15.40;94.80;;;;;;5467838;26;20726;-81
2024/04/16 12:09:42;;;;;;;6.22;2.60;;;15.00;95.10;;;;;;5467909;26;20937;-82
2024/04/16 12:12:11;;;;;;;2.28;2.08;;;14.80;95.50;;;;;;5458902;26;20782;-82
2024/04/16 12:14:37;;;;;;;3.65;2.80;;;14.50;95.50;;;;;;5463289;26;20534;-83
2024/04/16 12:17:06;;;;;;;3.40;2.07;;;14.00;96.00;;;;;;5466648;26;20287;-82
2024/04/16 12:19:32;;;;;;;5.38;2.40;;;13.90;96.30;;;;;;5474430;26;20465;-82
2024/04/16 12:22:01;;;;;;;4.10;2.97;;;13.70;96.90;;;;;;5464806;26;21132;-82
2024/04/16 12:24:30;;;;;;;4.45;2.60;;;13.60;97.60;;;;;;5458749;26;20265;-82
2024/04/16 12:26:58;;;;;;;2.75;2.03;;;13.30;97.90;;;;;;5467139;26;20216;-83
2024/04/16 12:29:24;;;;;;;2.63;1.75;;;13.20;98.30;;;;;;5452075;26;20221;-84
2024/04/16 12:31:53;;;;;;;3.60;2.23;;;13.10;98.80;;;;;;5467949;26;20232;-83
2024/04/16 12:34:19;;;;;;;3.17;1.90;;;13.00;99.10;;;;;;5464141;26;20521;-84
2024/04/16 12:36:47;;;;;;;2.90;2.10;;;12.90;99.10;;;;;;5443659;26;20237;-83
2024/04/16 12:39:13;;;;;;;4.28;2.38;;;13.00;99.80;;;;;;5453677;26;20478;-82
2024/04/16 12:41:45;;;;;;;3.03;1.83;;;13.10;99.40;;;;;;5446344;26;20283;-83
2024/04/16 12:44:11;;;;;;;2.17;1.70;;;13.20;98.60;;;;;;5447415;26;20574;-84
2024/04/16 12:46:39;;;;;;;4.25;2.03;;;13.20;98.00;;;;;;5452232;26;20226;-81
2024/04/16 12:49:05;;;;;;;3.65;2.22;;;13.20;97.80;;;;;;5467551;26;20253;-80
2024/04/16 12:51:34;;;;;;;3.10;1.92;;;13.30;97.40;;;;;;5471889;26;20208;-81
2024/04/16 12:54:00;;;;;;;2.10;1.40;;;13.50;97.00;;;;;;5476850;26;20250;-81
2024/04/16 12:56:29;;;;;;;4.90;2.20;;;13.70;96.50;;;;;;5475828;26;20224;-82
2024/04/16 12:58:57;;;;;;;4.88;1.90;;;13.80;96.90;;;;;;5476680;26;20510;-82